Time;durP1;ratioP1;P1;durP2;ratioP2;P2;SDS_P1;SDS_P2;PMS_P1;PMS_P2;Temp;Humidity;BMP_temperature;BMP_pressure;BME280_temperature;BME280_humidity;BME280_pressure;Samples;Min_cycle;Max_cycle;Signal;HPM_P1;HPM_P2
2022/12/29 00:02:12;;;;;;;28.60;3.38;;;9.50;99.90;;;;;;5024302;28;20029;-72
2022/12/29 00:04:37;;;;;;;30.58;3.13;;;9.50;99.90;;;;;;5021673;28;20033;-72
2022/12/29 00:07:06;;;;;;;30.65;3.60;;;9.70;99.90;;;;;;5018795;28;20412;-72
2022/12/29 00:09:33;;;;;;;33.33;3.90;;;9.80;99.90;;;;;;5018684;28;20017;-72
2022/12/29 00:11:59;;;;;;;32.20;3.90;;;9.90;99.90;;;;;;5018297;28;20060;-72
2022/12/29 00:17:09;;;;;;;30.73;4.18;;;9.90;99.90;;;;;;5012965;28;20188;-72
2022/12/29 00:36:36;;;;;;;34.63;3.38;;;9.50;99.90;;;;;;5011198;28;20121;-72
2022/12/29 00:45:05;;;;;;;31.15;2.85;;;9.40;99.90;;;;;;4965518;28;20037;-72
2022/12/29 00:47:31;;;;;;;21.88;3.28;;;9.30;99.90;;;;;;5019508;28;20171;-71
2022/12/29 00:49:57;;;;;;;23.70;3.13;;;9.30;99.90;;;;;;5019824;28;20889;-72
2022/12/29 00:52:22;;;;;;;26.85;2.78;;;9.20;99.90;;;;;;5008305;28;20030;-73
2022/12/29 00:54:48;;;;;;;36.05;3.83;;;9.30;99.90;;;;;;4999997;28;20061;-72
2022/12/29 00:57:14;;;;;;;26.85;3.10;;;9.30;99.90;;;;;;5013899;28;20045;-71
2022/12/29 00:59:41;;;;;;;20.20;3.03;;;9.40;99.90;;;;;;5019562;28;20083;-71
2022/12/29 01:02:07;;;;;;;18.15;2.42;;;9.50;99.90;;;;;;5017870;28;20044;-71
2022/12/29 01:04:33;;;;;;;19.05;2.35;;;9.50;99.90;;;;;;5017164;28;20393;-71
2022/12/29 01:06:58;;;;;;;17.55;2.15;;;9.30;99.90;;;;;;5018405;28;20041;-73
2022/12/29 01:12:09;;;;;;;23.20;3.85;;;9.10;99.90;;;;;;5011023;28;20040;-72
2022/12/29 01:14:35;;;;;;;34.80;3.45;;;9.10;99.90;;;;;;5019547;28;20099;-72
2022/12/29 01:17:01;;;;;;;30.88;3.60;;;9.10;99.90;;;;;;5018120;28;20077;-71
2022/12/29 01:19:27;;;;;;;32.60;4.28;;;9.20;99.90;;;;;;5018974;28;20465;-73
2022/12/29 01:21:52;;;;;;;33.25;3.78;;;9.20;99.90;;;;;;5018901;28;20033;-73
2022/12/29 01:24:20;;;;;;;39.47;4.32;;;9.20;99.90;;;;;;5019405;28;20116;-73
2022/12/29 01:26:46;;;;;;;31.33;3.58;;;9.20;99.90;;;;;;5018206;28;20042;-73
2022/12/29 01:29:11;;;;;;;37.80;3.50;;;9.30;99.90;;;;;;5010217;28;20033;-73
2022/12/29 01:31:37;;;;;;;35.50;4.75;;;9.30;99.90;;;;;;5012677;28;20394;-73
2022/12/29 01:34:03;;;;;;;36.05;5.00;;;9.30;99.90;;;;;;5022010;28;20033;-73
2022/12/29 01:36:29;;;;;;;35.13;3.33;;;9.40;99.90;;;;;;5017955;28;20041;-73
2022/12/29 01:38:55;;;;;;;36.22;4.05;;;9.40;99.90;;;;;;5002681;28;20086;-71
2022/12/29 01:41:21;;;;;;;30.70;3.80;;;9.40;99.90;;;;;;5013280;28;20033;-73
2022/12/29 01:43:47;;;;;;;24.25;3.30;;;9.50;99.90;;;;;;5002407;28;20068;-73
2022/12/29 01:46:42;;;;;;;28.17;3.50;;;9.50;99.90;;;;;;5019689;28;20024;-73
2022/12/29 01:49:07;;;;;;;26.30;3.17;;;9.60;99.90;;;;;;5023432;28;20397;-73
2022/12/29 01:51:38;;;;;;;30.20;3.67;;;9.50;99.90;;;;;;5020835;28;20137;-73
2022/12/29 01:54:09;;;;;;;26.52;3.85;;;9.40;99.90;;;;;;5007867;28;20037;-73
2022/12/29 01:56:36;;;;;;;25.58;3.42;;;9.40;99.90;;;;;;5017794;28;20481;-73
2022/12/29 01:59:10;;;;;;;33.95;3.22;;;9.30;99.90;;;;;;5022105;28;20116;-74
2022/12/29 02:01:35;;;;;;;29.30;3.33;;;9.30;99.90;;;;;;5019725;28;20026;-73
2022/12/29 02:04:01;;;;;;;29.73;4.07;;;9.20;99.90;;;;;;5008733;28;20097;-71
2022/12/29 02:06:39;;;;;;;30.85;3.97;;;9.30;99.90;;;;;;5021210;28;20068;-73
2022/12/29 02:09:05;;;;;;;25.90;3.28;;;9.20;99.90;;;;;;5003871;28;20099;-73
2022/12/29 02:11:31;;;;;;;37.33;3.92;;;9.20;99.90;;;;;;5021327;28;20552;-73
2022/12/29 02:13:57;;;;;;;28.33;3.80;;;9.20;99.90;;;;;;5021806;28;20029;-74
2022/12/29 02:16:31;;;;;;;29.38;3.70;;;9.20;99.90;;;;;;4999532;28;20471;-73
2022/12/29 02:19:35;;;;;;;34.30;3.58;;;9.20;99.90;;;;;;5015132;28;20060;-73
2022/12/29 02:22:00;;;;;;;31.75;4.32;;;9.20;99.90;;;;;;5020548;28;20051;-73
2022/12/29 02:24:35;;;;;;;35.40;4.40;;;9.40;99.90;;;;;;5022736;28;20025;-71
2022/12/29 02:27:30;;;;;;;26.90;3.40;;;9.30;99.90;;;;;;5011777;28;20033;-71
2022/12/29 02:30:05;;;;;;;37.53;4.25;;;9.20;99.90;;;;;;5002022;28;20582;-71
2022/12/29 02:32:48;;;;;;;37.20;4.47;;;9.20;99.90;;;;;;5020643;28;20422;-72
2022/12/29 02:35:32;;;;;;;35.30;4.55;;;9.20;99.90;;;;;;4999651;28;20329;-71
2022/12/29 02:38:16;;;;;;;28.42;4.30;;;9.30;99.90;;;;;;5014736;28;20044;-72
2022/12/29 02:40:52;;;;;;;24.80;3.65;;;9.20;99.90;;;;;;5018036;28;20029;-71
2022/12/29 02:43:33;;;;;;;33.75;4.20;;;9.20;99.90;;;;;;5017008;28;20222;-71
2022/12/29 02:46:10;;;;;;;29.80;3.40;;;9.10;99.90;;;;;;4998316;28;20120;-71
2022/12/29 02:48:46;;;;;;;27.70;3.67;;;9.20;99.90;;;;;;5021235;28;20033;-72
2022/12/29 02:51:26;;;;;;;28.17;3.20;;;9.20;99.90;;;;;;5005362;28;20037;-71
2022/12/29 02:56:38;;;;;;;24.92;2.75;;;9.00;99.90;;;;;;5014228;28;20064;-72
2022/12/29 02:59:04;;;;;;;20.65;3.20;;;9.00;99.90;;;;;;5016411;28;20029;-72
2022/12/29 03:02:20;;;;;;;19.23;3.00;;;9.00;99.90;;;;;;4995052;28;20049;-71
2022/12/29 03:05:05;;;;;;;21.73;2.60;;;9.10;99.90;;;;;;4996571;28;20594;-71
2022/12/29 03:08:06;;;;;;;29.83;3.45;;;9.10;99.90;;;;;;5011774;28;20033;-72
2022/12/29 03:10:47;;;;;;;22.00;3.87;;;8.90;99.90;;;;;;4932770;28;20505;-71
2022/12/29 03:16:45;;;;;;;25.92;2.95;;;9.10;99.90;;;;;;5014381;28;20112;-74
2022/12/29 03:19:32;;;;;;;21.98;3.78;;;9.30;99.90;;;;;;4961709;28;20045;-73
2022/12/29 03:24:56;;;;;;;31.98;4.18;;;9.40;99.90;;;;;;5014884;28;20658;-73
2022/12/29 03:27:41;;;;;;;34.90;4.27;;;9.40;99.90;;;;;;5012324;28;20116;-73
2022/12/29 03:30:08;;;;;;;33.05;4.07;;;9.60;99.90;;;;;;5014929;28;20580;-70
2022/12/29 03:32:46;;;;;;;35.45;5.32;;;9.60;99.90;;;;;;5016361;28;20025;-72
2022/12/29 03:35:14;;;;;;;38.97;4.97;;;9.70;99.90;;;;;;5010627;28;20068;-72
2022/12/29 03:37:45;;;;;;;32.13;4.10;;;9.70;99.90;;;;;;5013402;28;20042;-72
2022/12/29 03:40:11;;;;;;;46.08;5.82;;;9.70;99.90;;;;;;4991597;28;20033;-72
2022/12/29 03:42:37;;;;;;;44.78;4.40;;;9.70;99.90;;;;;;5012799;28;20382;-72
2022/12/29 03:45:04;;;;;;;48.85;4.63;;;9.80;99.90;;;;;;5014831;28;20438;-72
2022/12/29 03:47:30;;;;;;;48.42;5.05;;;9.90;99.90;;;;;;5014452;28;20029;-72
2022/12/29 03:49:55;;;;;;;35.00;5.18;;;9.90;99.90;;;;;;4993799;28;20152;-72
2022/12/29 03:52:21;;;;;;;41.05;5.25;;;10.00;99.90;;;;;;5014301;28;20107;-71
2022/12/29 03:54:47;;;;;;;30.38;4.43;;;10.00;99.90;;;;;;5013351;28;20137;-72
2022/12/29 03:57:12;;;;;;;33.88;5.18;;;10.00;99.90;;;;;;5013954;28;20041;-72
2022/12/29 03:59:38;;;;;;;48.25;5.20;;;10.00;99.90;;;;;;5022290;28;20037;-72
2022/12/29 04:02:04;;;;;;;38.10;4.85;;;10.00;99.90;;;;;;5014613;28;20037;-71
2022/12/29 04:04:29;;;;;;;40.05;5.60;;;10.10;99.90;;;;;;4995660;28;20174;-72
2022/12/29 04:06:55;;;;;;;33.75;4.13;;;10.10;99.90;;;;;;5014693;28;20048;-71
2022/12/29 04:09:20;;;;;;;33.22;5.72;;;10.10;99.90;;;;;;5012790;28;20653;-72
2022/12/29 04:11:46;;;;;;;25.38;4.15;;;10.10;99.90;;;;;;5013389;28;20357;-72
2022/12/29 04:14:12;;;;;;;32.63;3.95;;;10.10;99.90;;;;;;5014351;28;20037;-71
2022/12/29 04:16:38;;;;;;;27.83;4.63;;;10.10;99.90;;;;;;5014162;28;20426;-71
2022/12/29 04:19:07;;;;;;;31.33;3.88;;;10.10;99.90;;;;;;4996362;28;20044;-71
2022/12/29 04:21:33;;;;;;;35.08;3.80;;;10.00;99.90;;;;;;5014944;28;20175;-72
2022/12/29 04:24:00;;;;;;;26.15;3.80;;;9.90;99.90;;;;;;5013274;28;20151;-71
2022/12/29 04:26:26;;;;;;;29.00;3.42;;;10.00;99.90;;;;;;5014062;28;20034;-71
2022/12/29 04:28:51;;;;;;;26.33;3.85;;;10.10;99.90;;;;;;5014218;28;20071;-72
2022/12/29 04:31:17;;;;;;;34.58;4.22;;;10.10;99.90;;;;;;5014071;28;20038;-72
2022/12/29 04:33:42;;;;;;;34.20;3.47;;;10.10;99.90;;;;;;5014766;28;20033;-72
2022/12/29 04:36:08;;;;;;;32.78;3.38;;;10.10;99.90;;;;;;4996533;28;20043;-72
2022/12/29 04:38:34;;;;;;;33.97;5.85;;;10.10;99.90;;;;;;5013256;28;20367;-72
2022/12/29 04:41:01;;;;;;;23.48;4.18;;;10.10;99.90;;;;;;5013330;28;20563;-71
2022/12/29 04:43:27;;;;;;;36.17;4.28;;;10.10;99.90;;;;;;4996946;28;20034;-71
2022/12/29 04:45:53;;;;;;;33.50;3.97;;;10.00;99.90;;;;;;5013918;28;20022;-71
2022/12/29 04:48:18;;;;;;;36.53;4.55;;;9.70;99.90;;;;;;5014503;28;20473;-71
2022/12/29 04:50:46;;;;;;;34.90;5.47;;;9.50;99.90;;;;;;5014145;28;20029;-71
2022/12/29 04:53:12;;;;;;;49.05;5.00;;;9.30;99.90;;;;;;5012254;28;20432;-73
2022/12/29 04:55:38;;;;;;;37.45;5.43;;;9.30;99.90;;;;;;4994097;28;20034;-71
2022/12/29 04:58:03;;;;;;;47.97;4.30;;;9.30;99.90;;;;;;5012211;28;20112;-73
2022/12/29 05:00:29;;;;;;;52.45;5.50;;;9.20;99.90;;;;;;4994360;28;20053;-73
2022/12/29 05:02:55;;;;;;;33.88;4.32;;;9.20;99.90;;;;;;5014708;28;20025;-70
2022/12/29 05:05:20;;;;;;;43.17;4.57;;;9.20;99.90;;;;;;4997532;28;20036;-71
2022/12/29 05:07:46;;;;;;;45.72;5.78;;;9.20;99.90;;;;;;5015919;28;20025;-71
2022/12/29 05:10:11;;;;;;;43.13;5.40;;;9.20;99.90;;;;;;5015818;28;20033;-72
2022/12/29 05:12:38;;;;;;;40.28;4.97;;;9.30;99.90;;;;;;5015748;28;20079;-71
2022/12/29 05:15:06;;;;;;;43.47;5.65;;;9.40;99.90;;;;;;5014220;28;20474;-73
2022/12/29 05:17:31;;;;;;;47.40;5.65;;;9.40;99.90;;;;;;5014893;28;20431;-71
2022/12/29 05:19:57;;;;;;;46.30;5.40;;;9.40;99.90;;;;;;5016185;28;20025;-73
2022/12/29 05:22:23;;;;;;;35.58;5.38;;;9.40;99.90;;;;;;5014486;28;20123;-73
2022/12/29 05:24:48;;;;;;;43.05;5.28;;;9.40;99.90;;;;;;5015214;28;20220;-72
2022/12/29 05:27:14;;;;;;;37.45;4.60;;;9.40;99.90;;;;;;5013305;28;20036;-72
2022/12/29 05:29:40;;;;;;;30.40;4.40;;;9.40;99.90;;;;;;5016158;28;20048;-72
2022/12/29 05:32:05;;;;;;;26.70;3.92;;;9.40;99.90;;;;;;5015138;28;20059;-72
2022/12/29 05:34:31;;;;;;;34.03;3.92;;;9.40;99.90;;;;;;5015698;28;20514;-72
2022/12/29 05:36:57;;;;;;;40.42;4.10;;;9.40;99.90;;;;;;5012443;28;20575;-72
2022/12/29 05:39:22;;;;;;;26.88;3.42;;;9.40;99.90;;;;;;5015870;28;20134;-72
2022/12/29 05:41:48;;;;;;;44.65;4.53;;;9.40;99.90;;;;;;5013512;28;20085;-72
2022/12/29 05:44:14;;;;;;;42.20;4.32;;;9.40;99.90;;;;;;5016192;28;20567;-72
2022/12/29 05:46:40;;;;;;;31.23;3.22;;;9.40;99.90;;;;;;4996047;28;20488;-73
2022/12/29 05:49:06;;;;;;;35.03;4.35;;;9.40;99.90;;;;;;5015542;28;20033;-72
2022/12/29 05:51:31;;;;;;;26.50;3.42;;;9.50;99.90;;;;;;5014587;28;20025;-72
2022/12/29 05:53:57;;;;;;;28.60;3.78;;;9.50;99.90;;;;;;5014823;28;20037;-73
2022/12/29 05:56:23;;;;;;;25.30;3.30;;;9.50;99.90;;;;;;5014600;28;20327;-73
2022/12/29 05:58:49;;;;;;;23.00;3.78;;;9.60;99.90;;;;;;5017733;28;20059;-72
2022/12/29 06:01:14;;;;;;;29.17;4.18;;;9.60;99.90;;;;;;4997412;28;20489;-73
2022/12/29 06:03:40;;;;;;;31.13;3.50;;;9.60;99.90;;;;;;5016321;28;20039;-72
2022/12/29 06:06:06;;;;;;;24.60;3.85;;;9.60;99.90;;;;;;5017634;28;20249;-73
2022/12/29 06:08:31;;;;;;;34.10;3.63;;;9.60;99.90;;;;;;5016333;28;20029;-72
2022/12/29 06:10:57;;;;;;;31.17;3.53;;;9.70;99.90;;;;;;5015323;28;20051;-73
2022/12/29 06:13:22;;;;;;;24.88;3.55;;;9.60;99.90;;;;;;5016019;28;20037;-73
2022/12/29 06:15:49;;;;;;;23.02;3.30;;;9.60;99.90;;;;;;5016345;28;20369;-73
2022/12/29 06:18:15;;;;;;;13.13;2.80;;;9.60;99.90;;;;;;5015484;28;20107;-73
2022/12/29 06:20:41;;;;;;;23.77;2.63;;;9.40;99.90;;;;;;5015545;28;20038;-73
2022/12/29 06:23:06;;;;;;;18.83;2.60;;;9.30;99.90;;;;;;5016313;28;20108;-73
2022/12/29 06:25:33;;;;;;;19.80;3.90;;;9.20;99.90;;;;;;5018550;28;20469;-72
2022/12/29 06:28:00;;;;;;;19.45;2.67;;;9.10;99.90;;;;;;5023060;28;20021;-72
2022/12/29 06:30:26;;;;;;;19.85;3.30;;;9.10;99.90;;;;;;4999450;28;20029;-72
2022/12/29 06:32:51;;;;;;;13.55;2.20;;;9.10;99.90;;;;;;5015567;28;20025;-72
2022/12/29 06:35:17;;;;;;;18.63;2.45;;;9.10;99.90;;;;;;5016017;28;20030;-72
2022/12/29 06:37:43;;;;;;;23.52;2.58;;;9.10;99.90;;;;;;5016657;28;20037;-71
2022/12/29 06:40:09;;;;;;;17.58;1.90;;;9.10;99.90;;;;;;5015205;28;20448;-72
2022/12/29 06:42:35;;;;;;;14.15;2.47;;;9.00;99.90;;;;;;5014760;28;20401;-72
2022/12/29 06:45:01;;;;;;;16.27;1.92;;;9.00;99.90;;;;;;5015452;28;20029;-72
2022/12/29 06:47:26;;;;;;;17.10;2.05;;;9.00;99.90;;;;;;5015365;28;20460;-72
2022/12/29 06:49:52;;;;;;;13.48;1.70;;;8.80;99.90;;;;;;5015315;28;20057;-72
2022/12/29 06:52:18;;;;;;;10.52;1.50;;;8.80;99.90;;;;;;5014949;28;20112;-72
2022/12/29 06:54:43;;;;;;;12.55;1.80;;;8.70;99.90;;;;;;5014350;28;20030;-72
2022/12/29 06:57:09;;;;;;;7.25;1.17;;;8.60;99.90;;;;;;5013973;28;20134;-72
2022/12/29 06:59:35;;;;;;;9.07;1.90;;;8.60;99.90;;;;;;5015976;28;20115;-72
2022/12/29 07:02:01;;;;;;;11.02;1.40;;;8.60;99.90;;;;;;5015316;28;20069;-72
2022/12/29 07:04:28;;;;;;;12.85;1.65;;;8.60;99.90;;;;;;5014924;28;20345;-72
2022/12/29 07:06:54;;;;;;;12.10;1.45;;;8.60;99.90;;;;;;5012021;28;20029;-72
2022/12/29 07:09:19;;;;;;;9.88;1.77;;;8.50;99.90;;;;;;5013861;28;20047;-72
2022/12/29 07:11:45;;;;;;;9.77;1.17;;;8.50;99.90;;;;;;5013291;28;20401;-72
2022/12/29 07:14:11;;;;;;;9.55;1.30;;;8.50;99.90;;;;;;5016415;28;20140;-72
2022/12/29 07:16:37;;;;;;;6.10;1.27;;;8.60;99.90;;;;;;5015844;28;20503;-72
2022/12/29 07:19:04;;;;;;;6.88;0.77;;;8.60;99.90;;;;;;5021960;28;20041;-72
2022/12/29 07:21:29;;;;;;;5.50;0.80;;;8.50;99.90;;;;;;5015154;28;20037;-72
2022/12/29 07:23:55;;;;;;;5.95;1.13;;;8.50;99.90;;;;;;5014498;28;20076;-72
2022/12/29 07:26:21;;;;;;;30.38;11.68;;;8.50;99.90;;;;;;5013874;28;20026;-72
2022/12/29 07:28:47;;;;;;;4.97;1.00;;;8.40;99.90;;;;;;5013769;28;20032;-72
2022/12/29 07:31:18;;;;;;;1.75;0.60;;;8.30;99.90;;;;;;5011179;28;20342;-72
2022/12/29 07:33:44;;;;;;;5.93;0.85;;;8.20;99.90;;;;;;5008711;28;20033;-72
2022/12/29 07:36:11;;;;;;;4.70;0.90;;;8.10;99.90;;;;;;5011104;28;20041;-73
2022/12/29 07:38:37;;;;;;;6.97;0.80;;;8.10;99.90;;;;;;5009976;28;20057;-74
2022/12/29 07:41:03;;;;;;;5.47;1.00;;;7.90;99.90;;;;;;5012141;28;20117;-71
2022/12/29 07:43:28;;;;;;;9.45;2.28;;;7.90;99.90;;;;;;5007066;28;20455;-76
2022/12/29 07:45:54;;;;;;;9.85;0.98;;;7.80;99.90;;;;;;5010208;28;20104;-72
2022/12/29 07:48:20;;;;;;;8.75;1.30;;;7.70;99.90;;;;;;5011084;28;20048;-73
2022/12/29 07:50:46;;;;;;;6.55;1.13;;;7.70;99.90;;;;;;5008977;28;20480;-73
2022/12/29 07:53:11;;;;;;;8.80;1.30;;;7.60;99.90;;;;;;5008938;28;21094;-73
2022/12/29 07:55:37;;;;;;;9.23;1.00;;;7.60;99.90;;;;;;5010169;28;20049;-72
2022/12/29 07:58:03;;;;;;;8.98;1.40;;;7.50;99.90;;;;;;5013599;28;20213;-73
2022/12/29 08:00:29;;;;;;;9.45;1.10;;;7.50;99.90;;;;;;5015090;28;20064;-72
2022/12/29 08:02:54;;;;;;;8.38;1.20;;;7.50;99.90;;;;;;5016161;28;20029;-72
2022/12/29 08:05:20;;;;;;;8.40;1.02;;;7.50;99.90;;;;;;5015063;28;20471;-72
2022/12/29 08:07:46;;;;;;;9.75;1.55;;;7.60;99.90;;;;;;5014028;28;20396;-72
2022/12/29 08:10:13;;;;;;;7.15;1.05;;;7.50;99.90;;;;;;5013460;28;20040;-73
2022/12/29 08:12:39;;;;;;;10.15;1.48;;;7.50;99.90;;;;;;5014272;28;20358;-73
2022/12/29 08:15:06;;;;;;;13.30;1.67;;;7.50;99.90;;;;;;5015631;28;20175;-73
2022/12/29 08:17:32;;;;;;;12.95;1.58;;;7.60;99.90;;;;;;5014393;28;20059;-72
2022/12/29 08:19:58;;;;;;;8.10;1.52;;;7.60;99.90;;;;;;5012559;28;20192;-72
2022/12/29 08:22:24;;;;;;;8.38;1.85;;;7.60;99.90;;;;;;5012803;28;20026;-72
2022/12/29 08:24:49;;;;;;;7.35;1.20;;;7.60;99.90;;;;;;5008060;28;20244;-73
2022/12/29 08:27:15;;;;;;;11.55;1.20;;;7.70;99.90;;;;;;4987997;28;20043;-72
2022/12/29 08:29:41;;;;;;;14.60;2.05;;;7.70;99.90;;;;;;5008507;28;20363;-72
2022/12/29 08:32:07;;;;;;;12.15;1.52;;;7.70;99.90;;;;;;4994213;28;20373;-72
2022/12/29 08:34:32;;;;;;;12.38;1.25;;;7.80;99.90;;;;;;5007045;28;20516;-73
2022/12/29 08:36:58;;;;;;;6.18;0.88;;;7.70;99.90;;;;;;5012167;28;20041;-73
2022/12/29 08:39:24;;;;;;;15.32;1.50;;;7.70;99.90;;;;;;5015072;28;20033;-72
2022/12/29 08:41:50;;;;;;;12.32;1.35;;;7.70;99.90;;;;;;4997780;28;20053;-72
2022/12/29 08:44:15;;;;;;;11.35;1.80;;;7.70;99.90;;;;;;5016460;28;20037;-73
2022/12/29 08:46:41;;;;;;;15.70;1.83;;;7.70;99.90;;;;;;5016569;28;20041;-73
2022/12/29 08:49:06;;;;;;;11.98;1.77;;;7.80;99.90;;;;;;5012830;28;20448;-72
2022/12/29 08:51:32;;;;;;;16.08;2.30;;;7.80;99.90;;;;;;5014417;28;20026;-72
2022/12/29 08:53:59;;;;;;;12.35;1.73;;;7.90;99.90;;;;;;5016572;28;20550;-72
2022/12/29 08:56:24;;;;;;;14.30;1.92;;;8.10;99.90;;;;;;5015536;28;20037;-72
2022/12/29 08:58:52;;;;;;;17.33;2.05;;;8.20;99.90;;;;;;4998205;28;20108;-73
2022/12/29 09:01:18;;;;;;;11.23;1.70;;;8.20;99.90;;;;;;4998500;28;20029;-72
2022/12/29 09:03:43;;;;;;;10.57;1.40;;;8.30;99.90;;;;;;5013670;28;20079;-72
2022/12/29 09:06:09;;;;;;;17.23;2.70;;;8.30;99.90;;;;;;5007020;28;20025;-72
2022/12/29 09:08:34;;;;;;;16.95;2.78;;;8.50;99.90;;;;;;5009938;28;20029;-72
2022/12/29 09:11:22;;;;;;;11.43;1.95;;;8.70;99.90;;;;;;4990647;28;20028;-73
2022/12/29 09:13:48;;;;;;;12.95;1.90;;;9.10;99.90;;;;;;4989927;28;20037;-76
2022/12/29 09:16:15;;;;;;;15.07;2.10;;;9.40;99.90;;;;;;5009799;28;20460;-74
2022/12/29 09:18:41;;;;;;;15.65;2.25;;;9.80;99.90;;;;;;5011244;28;20033;-77
2022/12/29 09:21:07;;;;;;;15.38;1.60;;;10.20;99.90;;;;;;5014365;28;20068;-73
2022/12/29 09:23:33;;;;;;;13.25;1.85;;;10.40;99.90;;;;;;5017013;28;20167;-72
2022/12/29 09:25:59;;;;;;;14.82;2.05;;;10.50;99.90;;;;;;5015473;28;20366;-73
2022/12/29 09:28:25;;;;;;;18.00;2.20;;;10.50;99.90;;;;;;5014542;28;20030;-73
2022/12/29 09:30:51;;;;;;;10.18;1.45;;;10.50;99.90;;;;;;5003486;28;20037;-73
2022/12/29 09:33:17;;;;;;;15.02;2.20;;;10.90;99.90;;;;;;5013805;28;20332;-73
2022/12/29 09:35:45;;;;;;;16.15;2.15;;;11.00;99.90;;;;;;5012762;28;20168;-73
2022/12/29 09:38:11;;;;;;;12.63;1.48;;;11.10;99.90;;;;;;5015021;28;20492;-73
2022/12/29 09:40:39;;;;;;;15.43;2.67;;;11.20;99.90;;;;;;4996017;28;20548;-73
2022/12/29 09:43:19;;;;;;;16.02;2.15;;;11.20;99.90;;;;;;5010422;28;20049;-73
2022/12/29 09:46:20;;;;;;;14.52;1.88;;;11.00;99.90;;;;;;5007141;28;20421;-72
2022/12/29 09:48:51;;;;;;;14.00;1.95;;;10.70;99.90;;;;;;5013434;28;20123;-72
2022/12/29 09:51:19;;;;;;;;;;;10.60;99.90;;;;;;5017972;28;20136;-72
2022/12/29 09:53:51;;;;;;;10.63;1.95;;;10.80;99.90;;;;;;5018132;28;20286;-73
2022/12/29 09:56:21;;;;;;;13.07;1.50;;;10.60;99.90;;;;;;5018721;28;20096;-73
2022/12/29 09:59:30;;;;;;;11.00;1.45;;;10.40;99.90;;;;;;5017673;28;20433;-72
2022/12/29 10:02:10;;;;;;;8.57;1.30;;;10.60;99.90;;;;;;5008388;28;20484;-73
2022/12/29 10:04:35;;;;;;;10.45;1.30;;;11.00;99.90;;;;;;5015442;28;20038;-73
2022/12/29 10:07:25;;;;;;;8.57;1.17;;;11.30;99.90;;;;;;5011750;28;20091;-73
2022/12/29 10:10:15;;;;;;;9.85;1.65;;;11.40;99.90;;;;;;4968871;28;20136;-73
2022/12/29 10:13:09;;;;;;;8.52;1.00;;;11.90;99.90;;;;;;5017566;28;20037;-73
2022/12/29 10:15:56;;;;;;;10.15;1.42;;;12.50;99.90;;;;;;5014329;28;20402;-72
2022/12/29 10:18:49;;;;;;;7.07;1.20;;;12.80;99.90;;;;;;5020075;28;20128;-73
2022/12/29 10:21:17;;;;;;;4.43;1.10;;;12.80;97.50;;;;;;5015908;28;20579;-73
2022/12/29 10:23:51;;;;;;;7.80;1.92;;;12.90;98.60;;;;;;5017171;28;20105;-72
2022/12/29 10:26:26;;;;;;;12.43;1.27;;;12.70;95.70;;;;;;5015306;28;20022;-73
2022/12/29 10:28:57;;;;;;;10.70;1.30;;;12.60;99.80;;;;;;5016222;28;20525;-73
2022/12/29 10:31:28;;;;;;;7.20;0.80;;;12.60;99.90;;;;;;5018920;28;20037;-73
2022/12/29 10:33:59;;;;;;;4.13;0.93;;;12.40;99.90;;;;;;5015326;28;20075;-73
2022/12/29 10:36:39;;;;;;;11.40;1.88;;;12.30;99.90;;;;;;5011556;28;20052;-73
2022/12/29 10:39:11;;;;;;;7.20;0.88;;;12.20;99.90;;;;;;4996559;28;22894;-75
2022/12/29 10:41:46;;;;;;;5.82;0.90;;;12.50;99.90;;;;;;5015942;28;20122;-72
2022/12/29 10:44:16;;;;;;;8.60;0.70;;;12.60;99.90;;;;;;5016375;28;20102;-72
2022/12/29 10:46:43;;;;;;;4.68;0.80;;;12.70;97.60;;;;;;5015843;28;20301;-73
2022/12/29 10:49:19;;;;;;;7.10;1.25;;;12.80;95.00;;;;;;5019479;28;20522;-73
2022/12/29 10:51:47;;;;;;;6.38;1.38;;;12.40;96.70;;;;;;5020588;28;20440;-73
2022/12/29 10:54:29;;;;;;;4.65;0.90;;;12.60;94.80;;;;;;5019551;28;20288;-73
2022/12/29 10:57:11;;;;;;;7.30;1.30;;;12.70;93.40;;;;;;5009757;28;20034;-73
2022/12/29 10:59:37;;;;;;;8.63;1.25;;;13.00;93.80;;;;;;5001608;28;20029;-73
2022/12/29 11:02:40;;;;;;;5.47;0.77;;;13.20;92.20;;;;;;5019053;28;20261;-73
2022/12/29 11:05:10;;;;;;;6.38;1.20;;;13.60;90.70;;;;;;5019609;28;20033;-73
2022/12/29 11:07:37;;;;;;;3.22;0.85;;;13.40;87.80;;;;;;4306268;28;10000634;-73
2022/12/29 11:10:23;;;;;;;6.88;1.13;;;12.90;88.00;;;;;;4992655;28;20514;-73
2022/12/29 11:13:13;;;;;;;6.75;1.00;;;12.50;94.60;;;;;;4994356;28;20037;-71
2022/12/29 11:15:47;;;;;;;8.27;1.10;;;12.10;96.30;;;;;;5001876;28;20430;-72
2022/12/29 11:18:22;;;;;;;6.40;0.90;;;11.60;98.60;;;;;;5011179;28;20549;-72
2022/12/29 11:20:54;;;;;;;7.50;0.90;;;11.50;99.90;;;;;;5014283;28;20060;-73
2022/12/29 11:23:31;;;;;;;5.18;0.70;;;11.50;99.90;;;;;;5015394;28;20122;-72
2022/12/29 11:26:17;;;;;;;10.90;1.40;;;11.50;99.90;;;;;;5015175;28;20076;-73
2022/12/29 11:28:46;;;;;;;6.32;0.85;;;11.50;99.90;;;;;;5017381;28;20052;-73
2022/12/29 11:31:17;;;;;;;7.80;1.38;;;11.40;97.80;;;;;;4999893;28;20576;-72
2022/12/29 11:33:43;;;;;;;7.03;1.05;;;11.50;99.30;;;;;;5016109;28;20029;-73
2022/12/29 11:36:20;;;;;;;10.43;1.67;;;11.40;99.90;;;;;;5011157;28;20040;-72
2022/12/29 11:38:52;;;;;;;13.00;1.25;;;11.50;98.90;;;;;;5014551;28;20500;-72
2022/12/29 11:41:28;;;;;;;;;;;11.60;98.80;;;;;;5014040;28;20025;-72
2022/12/29 11:43:58;;;;;;;10.32;1.30;;;11.70;99.80;;;;;;5015947;28;20020;-72
2022/12/29 11:46:31;;;;;;;6.97;1.02;;;11.60;95.80;;;;;;5015836;28;20538;-72
2022/12/29 11:48:59;;;;;;;7.55;1.77;;;11.90;96.90;;;;;;4999314;28;20038;-72
2022/12/29 11:51:46;;;;;;;8.15;1.33;;;11.90;94.30;;;;;;5015471;28;20406;-72
2022/12/29 11:54:42;;;;;;;9.10;1.90;;;11.80;93.60;;;;;;5017894;28;20534;-72
2022/12/29 11:57:13;;;;;;;12.68;2.08;;;11.70;95.00;;;;;;4999294;28;20056;-72
2022/12/29 11:59:42;;;;;;;6.80;1.42;;;11.40;93.10;;;;;;4996309;28;20037;-72
2022/12/29 12:02:19;;;;;;;6.63;1.52;;;11.40;98.10;;;;;;5009317;28;20030;-72
2022/12/29 12:04:48;;;;;;;7.47;1.17;;;11.30;97.30;;;;;;5011510;28;20615;-72
2022/12/29 12:07:31;;;;;;;8.65;1.42;;;11.60;99.50;;;;;;4991778;28;20127;-74
2022/12/29 12:10:04;;;;;;;8.98;1.65;;;11.90;97.90;;;;;;5011121;28;20512;-72
2022/12/29 12:12:39;;;;;;;10.27;1.42;;;12.20;94.90;;;;;;5014448;28;20077;-71
2022/12/29 12:15:05;;;;;;;13.65;1.50;;;12.20;95.80;;;;;;5007091;28;20056;-72
2022/12/29 12:17:43;;;;;;;10.90;1.50;;;12.50;93.60;;;;;;5003946;28;20069;-72
2022/12/29 12:20:21;;;;;;;10.70;1.77;;;12.40;96.50;;;;;;4998056;28;20083;-73
2022/12/29 12:22:52;;;;;;;11.70;1.50;;;12.50;94.70;;;;;;5017426;28;20103;-72
2022/12/29 12:25:31;;;;;;;14.68;1.90;;;12.30;91.40;;;;;;5015827;28;20060;-72
2022/12/29 12:28:17;;;;;;;8.63;1.45;;;11.70;95.10;;;;;;5012774;28;20298;-73
2022/12/29 12:30:50;;;;;;;14.50;1.50;;;11.50;99.90;;;;;;5011799;28;20481;-73
2022/12/29 12:33:38;;;;;;;9.65;1.63;;;11.40;98.30;;;;;;5013716;28;20048;-72
2022/12/29 12:36:26;;;;;;;9.63;1.77;;;11.20;95.50;;;;;;4989815;28;20099;-72
2022/12/29 12:39:18;;;;;;;6.38;1.20;;;11.00;94.40;;;;;;4994632;28;20066;-72
2022/12/29 12:42:09;;;;;;;9.05;1.50;;;10.80;92.60;;;;;;5002797;28;20607;-73
2022/12/29 12:45:05;;;;;;;12.77;1.75;;;10.80;93.20;;;;;;5010975;28;20049;-72
2022/12/29 12:48:17;;;;;;;9.18;1.13;;;10.80;91.90;;;;;;5011294;28;20056;-72
2022/12/29 12:50:47;;;;;;;12.30;1.98;;;10.90;89.70;;;;;;4990962;28;20048;-72
2022/12/29 12:53:23;;;;;;;9.48;1.60;;;10.80;88.40;;;;;;5010437;28;20037;-72
2022/12/29 12:56:00;;;;;;;12.60;1.63;;;10.50;92.70;;;;;;5012924;28;20033;-73
2022/12/29 12:58:38;;;;;;;9.70;1.55;;;10.50;93.80;;;;;;4980776;28;20559;-72
2022/12/29 13:01:03;;;;;;;9.80;1.27;;;10.50;94.20;;;;;;5013034;28;20083;-72
2022/12/29 13:03:52;;;;;;;14.05;1.95;;;10.40;94.40;;;;;;5013986;28;20037;-72
2022/12/29 13:06:46;;;;;;;8.18;1.70;;;10.70;95.20;;;;;;5015011;28;20358;-72
2022/12/29 13:09:22;;;;;;;7.80;1.63;;;10.90;93.40;;;;;;5013250;28;20057;-72
2022/12/29 13:12:06;;;;;;;11.98;1.92;;;11.30;92.70;;;;;;5007829;28;20037;-72
2022/12/29 13:14:31;;;;;;;9.30;2.13;;;11.60;93.10;;;;;;5010536;28;20053;-73
2022/12/29 13:17:14;;;;;;;16.60;1.98;;;11.60;92.70;;;;;;5010569;28;20144;-72
2022/12/29 13:20:11;;;;;;;15.93;2.28;;;11.40;92.20;;;;;;5015404;28;20030;-72
2022/12/29 13:22:46;;;;;;;10.82;1.70;;;11.20;91.80;;;;;;4997962;28;20049;-72
2022/12/29 13:25:27;;;;;;;13.40;2.42;;;11.30;93.90;;;;;;4999350;28;20029;-73
2022/12/29 13:28:09;;;;;;;13.55;2.22;;;11.20;93.30;;;;;;5010643;28;20058;-73
2022/12/29 13:30:57;;;;;;;11.27;1.70;;;11.40;93.90;;;;;;5011462;28;20037;-73
2022/12/29 13:33:43;;;;;;;15.25;2.15;;;11.30;94.10;;;;;;5013498;28;20493;-73
2022/12/29 13:36:46;;;;;;;22.30;4.22;;;11.40;95.10;;;;;;5007004;28;20039;-72
2022/12/29 13:39:27;;;;;;;17.00;2.22;;;11.20;95.80;;;;;;4984406;28;20519;-73
2022/12/29 13:41:55;;;;;;;12.82;2.22;;;10.90;96.30;;;;;;5013862;28;20045;-73
2022/12/29 13:44:30;;;;;;;12.70;2.15;;;10.80;98.20;;;;;;4995505;28;20045;-72